Time;durP1;ratioP1;P1;durP2;ratioP2;P2;SDS_P1;SDS_P2;PMS_P1;PMS_P2;Temp;Humidity;BMP_temperature;BMP_pressure;BME280_temperature;BME280_humidity;BME280_pressure;Samples;Min_cycle;Max_cycle;Signal;HPM_P1;HPM_P2
2022/06/29 00:01:10;;;;;;;0.68;0.40;;;;;;;22.56;44.67;101494.66;16150711;19;129818;-72
2022/06/29 00:06:32;;;;;;;1.30;0.50;;;;;;;22.55;45.15;101492.97;16148314;19;128954;-72
2022/06/29 00:11:53;;;;;;;1.67;0.32;;;;;;;22.55;44.98;101481.81;16146838;19;129120;-72
2022/06/29 00:17:15;;;;;;;1.70;0.40;;;;;;;22.55;44.88;101487.38;16150814;19;129380;-72
2022/06/29 00:22:38;;;;;;;1.48;0.40;;;;;;;22.54;44.85;101480.13;16148988;19;129877;-71
2022/06/29 00:28:00;;;;;;;1.83;0.30;;;;;;;22.53;44.87;101461.69;16146545;19;129618;-72
2022/06/29 00:33:22;;;;;;;1.15;0.40;;;;;;;22.52;44.63;101476.78;16148051;19;128927;-71
2022/06/29 00:38:43;;;;;;;1.35;0.43;;;;;;;22.52;44.94;101460.03;16142355;19;129319;-72
2022/06/29 00:44:09;;;;;;;0.98;0.32;;;;;;;22.51;44.88;101452.78;16145122;19;129298;-72
2022/06/29 00:49:32;;;;;;;;;;;;;;;22.48;44.81;101454.13;16143617;19;129554;-72
2022/06/29 00:54:56;;;;;;;0.85;0.40;;;;;;;22.50;44.90;101451.09;16146728;19;131350;-72
2022/06/29 01:00:18;;;;;;;1.27;0.40;;;;;;;22.48;45.06;101448.53;16141529;19;129256;-72
2022/06/29 01:05:40;;;;;;;2.25;0.50;;;;;;;22.47;44.98;101441.28;16145219;19;129195;-72
2022/06/29 01:11:02;;;;;;;0.60;0.40;;;;;;;22.48;44.92;101436.56;16140829;19;129133;-72
2022/06/29 01:16:24;;;;;;;2.33;0.43;;;;;;;22.48;44.83;101437.41;16143666;19;129428;-72
2022/06/29 01:21:50;;;;;;;1.15;0.40;;;;;;;22.48;44.44;101439.34;16144254;19;130071;-72
2022/06/29 01:27:14;;;;;;;2.53;0.60;;;;;;;22.48;44.83;101444.94;16141237;19;129198;-71
2022/06/29 01:32:38;;;;;;;1.00;0.40;;;;;;;22.47;44.91;101446.03;16137966;19;131397;-73
2022/06/29 01:38:00;;;;;;;4.47;0.50;;;;;;;22.46;45.18;101445.19;16137874;19;129071;-73
2022/06/29 01:43:22;;;;;;;1.05;0.43;;;;;;;22.46;44.52;101441.56;16145146;19;130711;-73
2022/06/29 01:48:44;;;;;;;1.17;0.40;;;;;;;22.46;44.87;101427.63;16139936;19;129136;-72
2022/06/29 01:54:06;;;;;;;0.55;0.30;;;;;;;22.44;44.86;101425.94;16141031;19;129024;-72
2022/06/29 01:59:28;;;;;;;2.80;0.40;;;;;;;22.45;44.88;101435.16;16140783;19;129116;-73
2022/06/29 02:04:50;;;;;;;0.70;0.40;;;;;;;22.43;44.63;101424.25;16141074;19;130170;-72
2022/06/29 02:10:12;;;;;;;2.15;0.40;;;;;;;22.42;44.94;101419.75;16138693;19;129969;-73
2022/06/29 02:15:34;;;;;;;0.45;0.20;;;;;;;22.43;44.68;101413.09;16139808;19;129429;-72
2022/06/29 02:20:56;;;;;;;1.85;0.40;;;;;;;22.42;45.14;101413.34;16141822;19;129812;-71
2022/06/29 02:26:18;;;;;;;0.55;0.40;;;;;;;22.42;44.51;101410.56;16132871;19;129096;-72
2022/06/29 02:37:21;;;;;;;0.77;0.40;;;;;;;22.38;45.10;101401.91;16132900;19;129571;-72
2022/06/29 02:42:42;;;;;;;8.63;0.85;;;;;;;22.39;44.81;101391.56;16143011;19;129416;-72
2022/06/29 02:48:24;;;;;;;0.98;0.40;;;;;;;22.38;45.21;101390.75;16146956;19;129841;-72
2022/06/29 02:53:45;;;;;;;1.75;0.40;;;;;;;22.38;44.76;101382.38;16153765;19;129203;-71
2022/06/29 02:59:07;;;;;;;1.10;0.60;;;;;;;22.39;45.01;101380.41;16153494;19;129375;-72
2022/06/29 03:04:29;;;;;;;1.23;0.55;;;;;;;22.38;44.85;101376.81;16145645;19;130856;-71
2022/06/29 03:09:51;;;;;;;3.92;0.50;;;;;;;22.37;45.20;101372.34;16149077;19;129426;-71
2022/06/29 03:15:13;;;;;;;1.02;0.57;;;;;;;22.36;45.12;101367.84;16153225;19;129885;-71
2022/06/29 03:20:35;;;;;;;1.17;0.40;;;;;;;22.37;45.17;101369.53;16152323;19;129423;-71
2022/06/29 03:25:57;;;;;;;0.93;0.43;;;;;;;22.35;44.82;101363.38;16148397;19;129259;-72
2022/06/29 03:31:19;;;;;;;1.77;0.50;;;;;;;22.35;44.85;101355.03;16147387;19;129860;-72
2022/06/29 03:36:42;;;;;;;3.28;0.65;;;;;;;22.35;44.83;101359.72;16146752;19;130431;-71
2022/06/29 03:42:04;;;;;;;1.08;0.52;;;;;;;22.33;44.64;101354.44;16150428;19;129322;-72
2022/06/29 03:47:26;;;;;;;1.52;0.70;;;;;;;22.33;44.73;101357.22;16150147;19;129714;-71
2022/06/29 03:52:51;;;;;;;2.00;0.50;;;;;;;22.33;44.56;101353.59;16148833;19;128904;-71
2022/06/29 03:58:13;;;;;;;1.85;0.65;;;;;;;22.30;45.07;101357.72;16148996;19;129329;-71
2022/06/29 04:03:35;;;;;;;2.03;0.55;;;;;;;22.31;44.83;101353.03;16148432;19;130100;-71
2022/06/29 04:08:57;;;;;;;0.82;0.52;;;;;;;22.30;44.76;101352.16;16145887;19;129424;-72
2022/06/29 04:14:21;;;;;;;1.88;0.52;;;;;;;22.29;44.66;101350.47;16150308;19;128886;-73
2022/06/29 04:19:43;;;;;;;1.77;0.70;;;;;;;22.29;44.69;101344.91;16150783;19;129346;-71
2022/06/29 04:25:05;;;;;;;1.00;0.50;;;;;;;22.28;44.62;101352.44;16146973;19;130614;-72
2022/06/29 04:30:27;;;;;;;3.63;0.63;;;;;;;22.28;44.69;101351.56;16147567;19;132028;-72
2022/06/29 04:35:49;;;;;;;1.80;0.40;;;;;;;22.28;44.76;101365.50;16143933;19;128832;-72
2022/06/29 04:41:10;;;;;;;1.10;0.43;;;;;;;22.27;44.82;101355.50;16147412;19;129354;-72
2022/06/29 04:46:32;;;;;;;1.20;0.82;;;;;;;22.27;44.70;101353.53;16142506;19;130234;-71
2022/06/29 04:51:55;;;;;;;1.33;0.45;;;;;;;22.27;44.74;101347.97;16142266;19;129909;-72
2022/06/29 04:57:17;;;;;;;0.52;0.40;;;;;;;22.27;44.95;101345.16;16146715;19;130837;-72
2022/06/29 05:02:39;;;;;;;0.95;0.40;;;;;;;22.28;44.80;101343.22;16146131;19;129342;-71
2022/06/29 05:08:01;;;;;;;3.33;0.57;;;;;;;22.28;44.83;101334.84;16141451;19;130647;-71
2022/06/29 05:13:23;;;;;;;1.88;0.43;;;;;;;22.27;45.06;101335.97;16144771;19;129713;-71
2022/06/29 05:18:44;;;;;;;2.15;0.50;;;;;;;22.26;44.95;101339.88;16145094;19;129212;-72
2022/06/29 05:24:07;;;;;;;2.17;0.50;;;;;;;22.27;44.98;101335.97;16141770;19;129462;-72
2022/06/29 05:29:32;;;;;;;8.23;0.50;;;;;;;22.27;44.94;101338.78;16142495;19;129413;-73
2022/06/29 05:34:54;;;;;;;3.88;0.55;;;;;;;22.32;44.93;101338.81;16141182;19;130002;-74
2022/06/29 05:40:16;;;;;;;1.40;0.47;;;;;;;22.34;44.72;101336.59;16143156;19;130233;-74
2022/06/29 05:45:46;;;;;;;4.80;0.75;;;;;;;22.40;44.38;101329.97;16142420;19;130439;-74
2022/06/29 05:51:08;;;;;;;4.00;0.65;;;;;;;22.46;44.65;101321.66;16136700;19;129848;-74
2022/06/29 05:56:30;;;;;;;2.85;0.40;;;;;;;22.50;44.43;101328.41;16141806;19;129514;-74
2022/06/29 06:01:51;;;;;;;2.00;0.70;;;;;;;22.53;44.56;101319.50;16140754;19;129962;-74
2022/06/29 06:07:13;;;;;;;3.05;0.70;;;;;;;22.57;44.57;101326.25;16139905;19;129934;-73
2022/06/29 06:12:35;;;;;;;3.83;0.70;;;;;;;22.60;44.42;101328.50;16136141;19;129214;-73
2022/06/29 06:17:57;;;;;;;4.40;0.70;;;;;;;22.63;44.39;101322.41;16136454;19;130549;-74
2022/06/29 06:23:20;;;;;;;2.63;0.57;;;;;;;22.63;44.60;101328.00;16138727;19;129415;-73
2022/06/29 06:28:42;;;;;;;4.32;0.70;;;;;;;22.67;44.36;101322.72;16141007;19;129251;-73
2022/06/29 06:34:04;;;;;;;1.58;0.45;;;;;;;22.69;44.29;101331.66;16140049;19;131061;-74
2022/06/29 06:39:26;;;;;;;2.40;0.70;;;;;;;22.72;44.37;101331.13;16138206;19;128899;-74
2022/06/29 06:44:47;;;;;;;2.15;0.50;;;;;;;22.74;44.25;101346.50;16140041;19;130386;-74
2022/06/29 06:50:09;;;;;;;3.70;0.65;;;;;;;22.76;44.37;101349.03;16134752;19;129922;-72
2022/06/29 06:55:31;;;;;;;3.00;0.60;;;;;;;22.77;44.45;101333.13;16139211;19;130499;-73
2022/06/29 07:00:53;;;;;;;2.88;0.80;;;;;;;22.80;44.57;101343.75;16137857;19;129281;-73
2022/06/29 07:06:15;;;;;;;1.90;0.40;;;;;;;22.83;44.34;101337.66;16136517;19;128878;-73
2022/06/29 07:11:37;;;;;;;3.38;0.60;;;;;;;22.84;44.23;101340.16;16135742;19;129048;-73
2022/06/29 07:16:59;;;;;;;2.60;0.43;;;;;;;22.86;44.08;101328.75;16136039;19;128828;-73
2022/06/29 07:22:20;;;;;;;2.67;0.50;;;;;;;22.86;44.09;101326.78;16131097;19;128812;-73
2022/06/29 07:27:43;;;;;;;1.52;0.43;;;;;;;22.87;44.18;101325.69;16140597;19;131922;-73
2022/06/29 07:33:05;;;;;;;1.08;0.40;;;;;;;22.89;44.26;101328.22;16145563;19;129149;-73
2022/06/29 07:38:27;;;;;;;1.58;0.40;;;;;;;22.93;43.94;101331.34;16144104;19;129478;-73
2022/06/29 07:43:49;;;;;;;3.65;0.57;;;;;;;22.93;43.95;101318.22;16150132;19;129473;-73
2022/06/29 07:49:11;;;;;;;0.88;0.40;;;;;;;22.95;44.01;101317.97;16148083;19;128977;-74
2022/06/29 07:54:33;;;;;;;1.42;0.30;;;;;;;22.96;44.17;101314.06;16148246;19;129640;-74
2022/06/29 07:59:54;;;;;;;0.30;0.20;;;;;;;22.98;44.42;101317.44;16146384;19;129550;-74
2022/06/29 08:05:16;;;;;;;0.47;0.35;;;;;;;22.97;44.23;101316.59;16147541;19;132116;-73
2022/06/29 08:10:38;;;;;;;1.25;0.35;;;;;;;22.99;44.22;101314.38;16144575;19;129100;-74
2022/06/29 08:16:00;;;;;;;0.52;0.30;;;;;;;23.00;44.04;101320.78;16146068;19;129623;-73
2022/06/29 08:21:22;;;;;;;0.47;0.20;;;;;;;23.00;44.21;101306.84;16147447;19;128839;-74
2022/06/29 08:26:44;;;;;;;0.68;0.30;;;;;;;23.00;43.90;101310.50;16147924;19;130593;-73
2022/06/29 08:32:26;;;;;;;0.60;0.25;;;;;;;23.00;44.10;101302.13;16142058;19;129346;-74
2022/06/29 08:37:48;;;;;;;0.68;0.28;;;;;;;23.01;44.31;101308.53;16142440;19;129137;-74
2022/06/29 08:43:15;;;;;;;0.50;0.20;;;;;;;23.00;44.38;101304.91;16146851;19;129509;-73
2022/06/29 08:48:36;;;;;;;1.88;0.30;;;;;;;23.01;44.25;101306.59;16146368;19;129362;-74
2022/06/29 08:54:00;;;;;;;1.10;0.20;;;;;;;23.00;44.44;101302.13;16145823;19;128996;-74
2022/06/29 08:59:22;;;;;;;0.35;0.10;;;;;;;23.01;44.46;101298.22;16145745;19;129223;-74
2022/06/29 09:05:05;;;;;;;0.32;0.20;;;;;;;23.01;44.10;101295.44;16148458;19;129068;-74
2022/06/29 09:10:29;;;;;;;2.28;0.30;;;;;;;23.01;44.25;101292.66;16145738;19;129424;-73
2022/06/29 09:15:59;;;;;;;1.20;0.30;;;;;;;23.02;44.45;101285.94;16144814;19;128976;-72
2022/06/29 09:21:21;;;;;;;0.40;0.30;;;;;;;23.00;44.08;101290.97;16138921;19;130538;-74
2022/06/29 09:26:47;;;;;;;0.77;0.20;;;;;;;23.00;44.51;101290.97;16142061;19;128901;-74
2022/06/29 09:32:15;;;;;;;0.80;0.50;;;;;;;23.02;44.39;101287.91;16135526;19;129044;-73
2022/06/29 09:37:38;;;;;;;0.73;0.30;;;;;;;23.00;44.40;101288.16;16135810;19;129755;-74
2022/06/29 09:43:00;;;;;;;0.52;0.30;;;;;;;23.00;44.44;101292.91;16140614;19;129237;-74
2022/06/29 09:48:24;;;;;;;0.55;0.40;;;;;;;22.99;44.31;101289.28;16140319;19;130090;-74
2022/06/29 09:53:47;;;;;;;4.22;0.52;;;;;;;22.98;44.43;101284.81;16132448;19;129628;-74
2022/06/29 09:59:11;;;;;;;3.40;0.75;;;;;;;22.98;44.71;101282.00;16141813;19;129421;-74
2022/06/29 10:04:33;;;;;;;4.22;0.85;;;;;;;22.98;44.43;101276.44;16137129;19;130443;-74
2022/06/29 10:09:57;;;;;;;9.73;1.00;;;;;;;22.99;44.40;101277.25;16133664;19;129292;-74
2022/06/29 10:15:45;;;;;;;6.28;1.67;;;;;;;23.03;44.27;101270.03;16135111;19;129527;-75
2022/06/29 10:21:22;;;;;;;5.90;1.75;;;;;;;23.07;44.41;101270.34;16130172;19;129483;-75
2022/06/29 10:26:45;;;;;;;10.02;2.13;;;;;;;23.08;44.83;101269.22;16137460;19;130474;-75
2022/06/29 10:32:12;;;;;;;14.55;3.03;;;;;;;23.09;44.76;101262.53;16133433;19;129862;-76
2022/06/29 10:37:46;;;;;;;10.55;3.03;;;;;;;23.10;44.82;101264.22;16128720;19;130677;-76
2022/06/29 10:43:20;;;;;;;8.35;2.03;;;;;;;23.12;44.72;101262.84;16139585;19;129377;-77
2022/06/29 10:49:19;;;;;;;9.57;2.10;;;;;;;23.14;44.83;101257.00;16137696;19;129695;-76
2022/06/29 10:54:41;;;;;;;9.18;2.28;;;;;;;23.13;44.95;101252.53;16137560;19;130911;-76
2022/06/29 11:00:08;;;;;;;7.63;2.05;;;;;;;23.14;44.95;101249.47;16136703;19;129835;-77
2022/06/29 11:05:34;;;;;;;5.35;1.88;;;;;;;23.17;44.58;101242.50;16146134;19;129764;-76
2022/06/29 11:16:41;;;;;;;4.28;1.67;;;;;;;23.17;44.71;101236.91;16170557;19;130383;-76
2022/06/29 11:22:10;;;;;;;7.38;1.33;;;;;;;23.17;44.59;101237.78;16151579;19;129377;-76
2022/06/29 11:27:35;;;;;;;9.27;2.10;;;;;;;23.17;44.77;101236.91;16151921;19;130431;-77
2022/06/29 11:32:57;;;;;;;;;;;;;;;23.17;44.35;101239.69;16147963;19;129265;-75
2022/06/29 11:38:19;;;;;;;2.95;1.27;;;;;;;23.19;44.57;101223.53;16144638;19;129209;-76
2022/06/29 11:43:42;;;;;;;7.88;1.65;;;;;;;23.18;44.57;101233.00;16149795;19;129089;-74
2022/06/29 11:54:56;;;;;;;5.25;1.17;;;;;;;23.19;44.28;101212.38;16146593;19;131057;-75
2022/06/29 12:00:24;;;;;;;3.40;1.05;;;;;;;23.20;44.10;101214.06;16150268;19;130219;-74
2022/06/29 12:05:59;;;;;;;3.65;1.10;;;;;;;23.22;44.10;101205.41;16147112;19;130424;-74
2022/06/29 12:11:23;;;;;;;4.95;1.20;;;;;;;23.19;44.34;101207.66;16144300;19;129675;-72
2022/06/29 12:16:44;;;;;;;4.95;1.23;;;;;;;23.23;44.31;101207.94;16142369;19;129485;-63
2022/06/29 12:22:07;;;;;;;1.88;1.00;;;;;;;23.29;44.66;101206.00;16150571;19;129980;-75
2022/06/29 12:27:29;;;;;;;4.40;1.13;;;;;;;23.35;44.28;101199.31;16148773;19;130087;-61
2022/06/29 12:32:51;;;;;;;4.63;1.58;;;;;;;23.39;44.42;101200.47;16137302;19;129744;-68
2022/06/29 12:38:12;;;;;;;9.80;1.40;;;;;;;23.44;44.24;101205.22;16135990;19;129445;-67
2022/06/29 12:43:34;;;;;;;6.10;1.23;;;;;;;23.45;44.07;101190.16;16146841;19;129370;-70
2022/06/29 12:48:57;;;;;;;3.90;1.02;;;;;;;23.49;44.17;101194.09;16147516;19;129182;-71
2022/06/29 12:54:19;;;;;;;9.25;1.17;;;;;;;23.50;44.23;101179.03;16140219;19;128998;-69
2022/06/29 12:59:42;;;;;;;4.50;1.08;;;;;;;23.53;44.11;101189.63;16148286;19;129909;-67
2022/06/29 13:05:04;;;;;;;7.30;0.80;;;;;;;23.59;44.27;101187.72;16143766;19;129740;-69
2022/06/29 13:10:28;;;;;;;7.50;1.02;;;;;;;23.60;43.96;101181.88;16141515;19;130578;-69
2022/06/29 13:15:49;;;;;;;5.95;1.00;;;;;;;23.60;43.90;101179.09;16139788;19;129016;-71
2022/06/29 13:21:12;;;;;;;2.72;0.90;;;;;;;23.62;43.80;101182.44;16146141;19;129609;-70
2022/06/29 13:26:34;;;;;;;7.68;0.90;;;;;;;23.63;43.85;101166.50;16206785;19;128737;-69
2022/06/29 13:31:56;;;;;;;9.52;1.20;;;;;;;23.62;43.45;101171.28;16208426;19;129242;-71
2022/06/29 13:37:19;;;;;;;5.93;1.00;;;;;;;23.63;43.44;101172.09;16204199;19;128918;-69
2022/06/29 13:42:40;;;;;;;4.03;0.98;;;;;;;23.65;43.81;101173.50;16212483;19;128945;-70
2022/06/29 13:48:22;;;;;;;6.13;1.10;;;;;;;23.69;43.51;101164.56;16215680;19;128832;-70
2022/06/29 13:53:44;;;;;;;4.45;1.23;;;;;;;23.68;43.25;101163.75;16215381;19;129476;-75
2022/06/29 13:59:06;;;;;;;3.70;1.05;;;;;;;23.69;42.92;101161.78;16217259;19;129511;-68
2022/06/29 14:04:28;;;;;;;4.18;1.00;;;;;;;23.71;43.07;101162.34;16215028;19;128398;-69
2022/06/29 14:09:50;;;;;;;4.25;1.00;;;;;;;23.73;43.05;101148.94;16218577;19;128794;-67
2022/06/29 14:15:12;;;;;;;7.15;0.90;;;;;;;23.75;42.97;101152.31;16220517;19;128258;-66
2022/06/29 14:20:33;;;;;;;5.13;0.70;;;;;;;23.76;42.25;101160.41;16220759;19;128507;-78
2022/06/29 14:25:56;;;;;;;1.55;0.80;;;;;;;23.79;42.39;101154.28;16222044;19;128385;-79
2022/06/29 14:31:18;;;;;;;1.83;0.80;;;;;;;23.80;42.46;101155.97;16213725;19;128389;-76
2022/06/29 14:36:40;;;;;;;3.13;0.90;;;;;;;23.82;42.51;101158.47;16214716;19;128303;-69
2022/06/29 14:42:02;;;;;;;3.03;0.98;;;;;;;23.83;41.85;101162.94;16218411;19;129609;-69
2022/06/29 14:47:24;;;;;;;1.92;0.80;;;;;;;23.86;42.55;101159.59;16216650;19;129083;-69
2022/06/29 14:52:47;;;;;;;3.90;0.93;;;;;;;23.88;41.89;101151.75;16213799;19;129032;-69
2022/06/29 14:58:09;;;;;;;1.40;0.80;;;;;;;23.91;42.08;101142.00;16209498;19;129055;-67
2022/06/29 15:03:30;;;;;;;7.55;1.17;;;;;;;23.92;42.45;101147.28;16211272;19;130046;-70
2022/06/29 15:08:52;;;;;;;5.60;1.05;;;;;;;23.93;42.40;101145.34;16166103;19;128873;-71
2022/06/29 15:14:14;;;;;;;4.60;0.80;;;;;;;23.91;42.39;101133.63;16135250;19;129924;-64
2022/06/29 15:19:36;;;;;;;9.27;0.95;;;;;;;23.87;42.29;101132.47;16158934;19;130443;-73
2022/06/29 15:24:59;;;;;;;4.35;1.10;;;;;;;23.89;42.66;101127.47;16156580;19;129593;-64
2022/06/29 15:30:21;;;;;;;2.78;1.00;;;;;;;23.94;42.73;101119.06;16141338;19;130421;-67
2022/06/29 15:41:23;;;;;;;5.90;1.08;;;;;;;23.99;42.50;101112.66;16155065;19;132047;-70
2022/06/29 15:46:45;;;;;;;10.90;3.10;;;;;;;23.99;42.61;101113.50;16134609;19;129097;-70
2022/06/29 15:52:07;;;;;;;25.05;6.55;;;;;;;24.00;42.49;101109.59;16156766;19;129732;-69
2022/06/29 15:57:28;;;;;;;21.65;4.75;;;;;;;24.00;42.55;101103.16;16151748;19;131847;-69
2022/06/29 16:02:51;;;;;;;16.13;4.45;;;;;;;23.99;42.74;101101.50;16146914;19;129359;-69
2022/06/29 16:08:13;;;;;;;13.85;3.50;;;;;;;23.95;42.70;101093.66;16148019;19;129617;-68
2022/06/29 16:13:35;;;;;;;17.50;3.97;;;;;;;23.94;42.65;101097.56;16145288;19;129351;-68
2022/06/29 16:18:56;;;;;;;12.70;3.75;;;;;;;23.95;42.73;101096.44;16148843;19;129524;-69
2022/06/29 16:24:39;;;;;;;13.35;2.95;;;;;;;23.94;43.19;101083.59;16149500;19;129239;-69
2022/06/29 16:30:03;;;;;;;9.38;2.85;;;;;;;23.94;42.87;101091.97;16150291;19;129721;-69
2022/06/29 16:35:25;;;;;;;10.88;2.58;;;;;;;23.93;42.88;101083.88;16147761;19;128988;-69
2022/06/29 16:40:47;;;;;;;12.40;2.30;;;;;;;23.92;42.68;101077.44;16152633;19;129620;-68
2022/06/29 16:46:10;;;;;;;9.27;2.75;;;;;;;23.93;42.98;101076.34;16149108;19;130038;-69
2022/06/29 16:51:32;;;;;;;7.22;2.10;;;;;;;23.93;43.01;101070.75;16137418;19;129736;-67
2022/06/29 16:57:14;;;;;;;8.30;1.90;;;;;;;23.92;43.13;101071.03;16144035;19;129681;-65
2022/06/29 17:02:36;;;;;;;5.03;2.05;;;;;;;23.90;43.61;101068.50;16142797;19;129390;-69
2022/06/29 17:07:58;;;;;;;8.73;2.03;;;;;;;23.91;43.52;101067.38;16145504;19;129101;-71
2022/06/29 17:13:20;;;;;;;7.57;1.90;;;;;;;23.91;43.67;101066.56;16141520;19;129473;-71
2022/06/29 17:18:42;;;;;;;6.60;2.00;;;;;;;23.92;43.55;101065.44;16143668;19;130497;-70
2022/06/29 17:24:04;;;;;;;5.60;1.63;;;;;;;23.91;43.73;101059.00;16145681;19;130284;-72
2022/06/29 17:29:25;;;;;;;7.43;1.92;;;;;;;23.92;43.49;101049.50;16145400;19;129467;-72
2022/06/29 17:34:50;;;;;;;5.38;2.05;;;;;;;23.90;43.50;101042.53;16139442;19;129621;-71
2022/06/29 17:40:12;;;;;;;5.90;1.60;;;;;;;23.87;44.04;101038.34;16143706;19;130013;-72
2022/06/29 17:45:34;;;;;;;3.88;1.60;;;;;;;23.84;43.45;101038.03;16139392;19;129310;-71
2022/06/29 17:50:56;;;;;;;6.07;1.48;;;;;;;23.82;43.78;101036.38;16139874;19;129509;-72
2022/06/29 17:56:21;;;;;;;3.90;1.15;;;;;;;23.80;43.93;101032.19;16133384;19;129332;-72
2022/06/29 18:01:43;;;;;;;4.32;1.55;;;;;;;23.78;43.92;101026.03;16140945;19;129489;-69
2022/06/29 18:07:05;;;;;;;2.78;1.00;;;;;;;23.78;43.77;101031.63;16139681;19;130175;-70
2022/06/29 18:12:27;;;;;;;2.08;1.02;;;;;;;23.77;43.61;101029.94;16134727;19;129605;-71
2022/06/29 18:17:48;;;;;;;2.33;1.00;;;;;;;23.76;44.04;101029.13;16138958;19;130122;-59
2022/06/29 18:23:10;;;;;;;7.32;1.98;;;;;;;23.78;44.37;101028.81;16132572;19;130200;-69
2022/06/29 18:28:33;;;;;;;10.15;2.20;;;;;;;23.81;44.87;101026.34;16138438;19;130148;-74
2022/06/29 18:33:55;;;;;;;5.28;1.70;;;;;;;23.83;44.68;101031.63;16133856;19;129296;-64
2022/06/29 18:39:17;;;;;;;8.82;1.80;;;;;;;23.85;45.27;101023.81;16135717;19;129269;-62
2022/06/29 18:44:39;;;;;;;7.40;1.90;;;;;;;23.85;45.06;101018.22;16133247;19;129432;-68
2022/06/29 18:50:00;;;;;;;8.40;1.80;;;;;;;23.87;45.55;101018.78;16134454;19;129680;-69
2022/06/29 18:55:23;;;;;;;6.40;1.42;;;;;;;23.88;45.19;101014.84;16127502;19;129165;-70
2022/06/29 19:00:44;;;;;;;3.40;1.67;;;;;;;23.87;45.33;101015.13;16134300;19;129478;-67
2022/06/29 19:06:06;;;;;;;6.78;1.85;;;;;;;23.88;45.43;101023.22;16132760;19;130623;-73
2022/06/29 19:17:09;;;;;;;6.65;1.67;;;;;;;23.90;45.42;101023.78;16134533;19;129791;-68
2022/06/29 19:22:31;;;;;;;8.93;1.73;;;;;;;23.89;45.14;101022.13;16132091;19;131159;-68
2022/06/29 19:27:53;;;;;;;7.88;1.60;;;;;;;23.88;45.32;101020.44;16145921;19;129284;-64
2022/06/29 19:33:15;;;;;;;6.85;1.50;;;;;;;23.87;45.23;101021.59;16146155;19;129557;-65
2022/06/29 19:38:37;;;;;;;9.18;1.67;;;;;;;23.86;45.56;101025.50;16143052;19;132440;-65
2022/06/29 19:43:59;;;;;;;4.57;1.33;;;;;;;23.87;45.35;101026.31;16145540;19;130447;-68
2022/06/29 19:49:21;;;;;;;2.95;1.40;;;;;;;23.84;45.26;101038.91;16140655;19;129728;-66
2022/06/29 19:54:42;;;;;;;4.13;1.30;;;;;;;23.83;45.09;101040.00;16141599;19;129580;-70
2022/06/29 20:00:06;;;;;;;5.22;1.30;;;;;;;23.82;45.33;101046.72;16141676;19;129007;-71
2022/06/29 20:05:27;;;;;;;2.83;1.23;;;;;;;23.80;45.58;101038.63;16144319;19;129109;-67
2022/06/29 20:10:49;;;;;;;6.38;1.73;;;;;;;23.81;45.36;101047.81;16142856;19;130168;-71
2022/06/29 20:16:31;;;;;;;4.47;1.30;;;;;;;23.82;45.27;101053.13;16136598;19;129762;-71
2022/06/29 20:21:53;;;;;;;3.28;1.10;;;;;;;23.82;45.16;101055.91;16139014;19;129737;-71
2022/06/29 20:27:14;;;;;;;8.05;1.63;;;;;;;23.80;45.26;101060.13;16136985;19;129688;-66
2022/06/29 20:32:36;;;;;;;5.15;1.30;;;;;;;23.77;44.98;101061.53;16141105;19;130248;-66
2022/06/29 20:37:58;;;;;;;8.13;1.58;;;;;;;23.76;45.24;101061.78;16132841;19;130505;-67
2022/06/29 20:49:01;;;;;;;5.40;1.13;;;;;;;23.73;45.53;101065.16;16140069;19;129954;-74
2022/06/29 20:54:22;;;;;;;5.82;1.10;;;;;;;23.74;45.68;101053.69;16137869;19;129921;-71
2022/06/29 20:59:44;;;;;;;2.60;1.00;;;;;;;23.76;45.58;101050.59;16132797;19;129315;-71
2022/06/29 21:05:08;;;;;;;8.73;1.38;;;;;;;23.77;45.59;101055.09;16141156;19;129129;-70
2022/06/29 21:10:30;;;;;;;4.97;0.80;;;;;;;23.75;45.37;101058.16;16139093;19;129691;-70
2022/06/29 21:15:52;;;;;;;2.38;1.00;;;;;;;23.73;45.57;101054.81;16134984;19;129483;-70
2022/06/29 21:21:15;;;;;;;2.47;1.10;;;;;;;23.72;45.28;101050.34;16136696;19;132187;-69
2022/06/29 21:26:37;;;;;;;5.40;1.10;;;;;;;23.71;45.28;101057.03;16136059;19;129687;-70
2022/06/29 21:31:58;;;;;;;4.68;1.15;;;;;;;23.68;45.56;101057.63;16131668;19;129627;-69
2022/06/29 21:37:20;;;;;;;3.08;0.90;;;;;;;23.67;45.43;101072.69;16130137;19;129609;-71
2022/06/29 21:42:42;;;;;;;6.15;0.98;;;;;;;23.66;45.38;101065.44;16136638;19;129490;-70
2022/06/29 21:48:04;;;;;;;6.90;1.17;;;;;;;23.65;45.60;101058.97;16133789;19;130073;-71
2022/06/29 21:53:26;;;;;;;5.88;1.65;;;;;;;23.64;45.47;101060.09;16134178;19;130281;-71
2022/06/29 21:58:47;;;;;;;7.05;1.48;;;;;;;23.63;45.34;101055.63;16137214;19;129431;-71
2022/06/29 22:04:09;;;;;;;3.40;1.00;;;;;;;23.61;45.43;101052.31;16139467;19;129447;-71
2022/06/29 22:09:31;;;;;;;5.57;0.77;;;;;;;23.60;45.09;101050.63;16134250;19;129806;-71
2022/06/29 22:14:53;;;;;;;3.38;1.00;;;;;;;23.59;45.30;101060.13;16133139;19;128909;-71
2022/06/29 22:20:15;;;;;;;6.63;1.00;;;;;;;23.58;45.32;101051.97;16136539;19;130204;-72
2022/06/29 22:25:42;;;;;;;4.55;0.90;;;;;;;23.57;45.61;101051.13;16134929;19;130840;-72
2022/06/29 22:31:04;;;;;;;4.13;0.88;;;;;;;23.56;45.36;101052.25;16137827;19;130364;-71
2022/06/29 22:36:26;;;;;;;2.85;1.00;;;;;;;23.55;45.24;101047.78;16131071;19;129851;-71
2022/06/29 22:41:52;;;;;;;2.28;0.90;;;;;;;23.55;45.22;101041.38;16135612;19;129695;-71
2022/06/29 22:47:15;;;;;;;3.95;1.00;;;;;;;23.53;45.20;101043.59;16135665;19;130504;-71
2022/06/29 22:52:37;;;;;;;1.95;0.95;;;;;;;23.51;45.30;101030.75;16134073;19;129609;-71
2022/06/29 22:58:08;;;;;;;4.07;0.90;;;;;;;23.52;45.24;101037.16;16136710;19;130247;-70
2022/06/29 23:03:29;;;;;;;3.08;0.90;;;;;;;23.52;45.06;101031.56;16149915;19;129502;-70
2022/06/29 23:08:51;;;;;;;2.15;0.85;;;;;;;23.51;45.21;101018.72;16148972;19;129393;-71
2022/06/29 23:14:13;;;;;;;3.88;0.90;;;;;;;23.50;45.23;101025.44;16146472;19;130128;-71
2022/06/29 23:19:37;;;;;;;3.22;0.95;;;;;;;23.50;45.22;101028.25;16146101;19;129475;-72
2022/06/29 23:24:59;;;;;;;3.83;0.88;;;;;;;23.49;45.11;101021.81;16144934;19;129165;-72
2022/06/29 23:30:23;;;;;;;1.88;0.90;;;;;;;23.49;44.77;101018.19;16147768;19;129754;-72
2022/06/29 23:35:45;;;;;;;1.50;0.80;;;;;;;23.47;45.17;101000.88;16142838;19;129696;-72
2022/06/29 23:41:06;;;;;;;2.42;0.80;;;;;;;23.47;45.25;101003.66;16146288;19;129765;-72
2022/06/29 23:46:29;;;;;;;1.73;0.80;;;;;;;23.46;45.22;100999.19;16146496;19;129005;-72
2022/06/29 23:51:53;;;;;;;2.83;0.88;;;;;;;23.45;44.92;101006.72;16148205;19;129329;-72
2022/06/29 23:57:15;;;;;;;1.30;0.65;;;;;;;23.45;45.26;101008.69;16142177;19;129025;-73
